Time;durP1;ratioP1;P1;durP2;ratioP2;P2;SDS_P1;SDS_P2;PMS_P1;PMS_P2;Temp;Humidity;BMP_temperature;BMP_pressure;BME280_temperature;BME280_humidity;BME280_pressure;Samples;Min_cycle;Max_cycle;Signal;HPM_P1;HPM_P2
2021/04/03 00:00:13;;;;;;;9.30;5.13;;;5.10;99.90;;;;;;5027414;28;20034;-73
2021/04/03 00:02:39;;;;;;;9.32;5.60;;;5.10;99.90;;;;;;5011303;28;20445;-73
2021/04/03 00:05:08;;;;;;;8.43;5.45;;;5.20;99.90;;;;;;5011390;28;20076;-73
2021/04/03 00:07:33;;;;;;;7.47;4.70;;;5.20;99.90;;;;;;5011036;28;20030;-73
2021/04/03 00:09:59;;;;;;;9.98;6.93;;;5.20;99.90;;;;;;5011258;28;20400;-73
2021/04/03 00:12:25;;;;;;;7.95;5.32;;;5.30;99.90;;;;;;5009816;28;20404;-73
2021/04/03 00:14:51;;;;;;;9.63;5.28;;;5.30;99.90;;;;;;5010941;28;20029;-73
2021/04/03 00:17:16;;;;;;;7.85;5.25;;;5.40;99.90;;;;;;5010501;28;20029;-73
2021/04/03 00:19:42;;;;;;;7.43;4.97;;;5.30;99.90;;;;;;5010960;28;20488;-73
2021/04/03 00:22:08;;;;;;;10.52;5.18;;;5.40;99.90;;;;;;5011398;28;20159;-73
2021/04/03 00:24:33;;;;;;;8.18;5.43;;;5.40;99.90;;;;;;5010875;28;20048;-73
2021/04/03 00:26:59;;;;;;;9.15;5.80;;;5.50;99.90;;;;;;5010796;28;20021;-73
2021/04/03 00:29:24;;;;;;;8.25;5.22;;;5.40;99.90;;;;;;5011321;28;20022;-73
2021/04/03 00:31:50;;;;;;;8.85;5.07;;;5.40;99.90;;;;;;5011075;28;20025;-73
2021/04/03 00:34:15;;;;;;;8.18;4.95;;;5.40;99.90;;;;;;5009307;28;20033;-73
2021/04/03 00:36:41;;;;;;;8.60;5.22;;;5.40;99.90;;;;;;5025798;28;20026;-73
2021/04/03 00:39:07;;;;;;;7.57;5.53;;;5.40;99.90;;;;;;5010828;28;20029;-73
2021/04/03 00:41:33;;;;;;;9.80;5.82;;;5.50;99.90;;;;;;5010870;28;20053;-73
2021/04/03 00:43:58;;;;;;;10.52;4.72;;;5.50;99.90;;;;;;5009423;28;20060;-73
2021/04/03 00:46:24;;;;;;;7.40;5.65;;;5.50;99.90;;;;;;5010807;28;20057;-73
2021/04/03 00:48:50;;;;;;;8.48;5.32;;;5.50;99.90;;;;;;5010438;28;20030;-73
2021/04/03 00:51:15;;;;;;;8.38;5.45;;;5.50;99.90;;;;;;5009128;28;20030;-73
2021/04/03 00:53:41;;;;;;;7.93;5.30;;;5.50;99.90;;;;;;5010262;28;20034;-73
2021/04/03 00:56:07;;;;;;;8.60;5.82;;;5.50;99.90;;;;;;5010297;28;20109;-73
2021/04/03 00:58:33;;;;;;;9.52;5.68;;;5.50;99.90;;;;;;5010305;28;20079;-73
2021/04/03 01:01:01;;;;;;;10.52;6.10;;;5.60;99.90;;;;;;5010282;28;20022;-73
2021/04/03 01:03:26;;;;;;;8.55;5.78;;;5.60;99.90;;;;;;5010170;28;20060;-73
2021/04/03 01:05:52;;;;;;;8.88;5.30;;;5.60;99.90;;;;;;5010349;28;20503;-73
2021/04/03 01:08:18;;;;;;;8.45;6.03;;;5.60;99.90;;;;;;5010433;28;20029;-73
2021/04/03 01:10:48;;;;;;;9.02;5.30;;;5.60;99.90;;;;;;5010123;28;20108;-73
2021/04/03 01:13:23;;;;;;;7.30;5.20;;;5.60;99.90;;;;;;5008764;28;20022;-73
2021/04/03 01:16:13;;;;;;;10.57;6.10;;;5.60;99.90;;;;;;5025199;28;20033;-73
2021/04/03 01:19:20;;;;;;;9.80;6.10;;;5.60;99.90;;;;;;5025129;28;20032;-73
2021/04/03 01:22:17;;;;;;;8.43;5.78;;;5.60;99.90;;;;;;5025493;28;20388;-73
2021/04/03 01:25:03;;;;;;;9.07;5.70;;;5.60;99.90;;;;;;5008307;28;20407;-73
2021/04/03 01:27:29;;;;;;;8.57;5.40;;;5.60;99.90;;;;;;5010221;28;20101;-73
2021/04/03 01:30:17;;;;;;;10.57;6.15;;;5.60;99.90;;;;;;5009267;28;20029;-73
2021/04/03 01:33:05;;;;;;;10.13;5.78;;;5.60;99.90;;;;;;5008620;28;20072;-73
2021/04/03 01:35:43;;;;;;;7.93;5.50;;;5.60;99.90;;;;;;5009977;28;20076;-73
2021/04/03 01:38:14;;;;;;;9.02;5.38;;;5.70;99.90;;;;;;5010351;28;20108;-73
2021/04/03 01:40:41;;;;;;;11.40;6.03;;;5.70;99.90;;;;;;5010360;28;20038;-73
2021/04/03 01:43:12;;;;;;;8.15;5.63;;;5.70;99.90;;;;;;5008938;28;20026;-73
2021/04/03 01:45:42;;;;;;;8.43;5.20;;;5.80;99.90;;;;;;5009230;28;20460;-72
2021/04/03 01:48:10;;;;;;;9.02;5.53;;;5.80;99.90;;;;;;5010549;28;20022;-73
2021/04/03 01:50:39;;;;;;;11.32;6.05;;;5.80;99.90;;;;;;5011325;28;20029;-73
2021/04/03 01:53:05;;;;;;;12.95;6.25;;;5.80;99.90;;;;;;5025311;28;20022;-73
2021/04/03 01:55:32;;;;;;;9.50;6.18;;;5.80;99.90;;;;;;5008368;28;20053;-73
2021/04/03 01:57:59;;;;;;;8.48;5.18;;;5.90;99.90;;;;;;5008471;28;20439;-73
2021/04/03 02:00:26;;;;;;;8.57;5.35;;;5.80;99.90;;;;;;5009543;28;20028;-73
2021/04/03 02:02:53;;;;;;;8.48;5.05;;;5.80;99.90;;;;;;5024709;28;20026;-73
2021/04/03 02:05:20;;;;;;;8.07;5.32;;;5.80;99.90;;;;;;5009570;28;20037;-73
2021/04/03 02:07:47;;;;;;;9.32;5.93;;;5.90;99.90;;;;;;5009445;28;20426;-73
2021/04/03 02:10:16;;;;;;;10.45;5.82;;;5.90;99.90;;;;;;5009401;28;20097;-73
2021/04/03 02:12:44;;;;;;;10.75;6.03;;;5.90;99.90;;;;;;5008056;28;20030;-73
2021/04/03 02:15:12;;;;;;;8.60;5.82;;;5.80;99.90;;;;;;5007833;28;20029;-73
2021/04/03 02:17:41;;;;;;;10.13;6.10;;;5.80;99.90;;;;;;5008095;28;20076;-70
2021/04/03 02:20:09;;;;;;;9.32;6.13;;;5.80;99.90;;;;;;5009326;28;20129;-73
2021/04/03 02:22:36;;;;;;;9.55;6.35;;;5.80;99.90;;;;;;5009385;28;20372;-74
2021/04/03 02:25:06;;;;;;;13.05;7.50;;;5.80;99.90;;;;;;5009063;28;20088;-73
2021/04/03 02:27:32;;;;;;;12.38;8.73;;;5.80;99.90;;;;;;5009270;28;20022;-73
2021/04/03 02:30:11;;;;;;;11.13;7.90;;;5.90;99.90;;;;;;5008399;28;20033;-73
2021/04/03 02:32:41;;;;;;;14.27;8.18;;;5.90;99.90;;;;;;5009067;28;20368;-73
2021/04/03 02:35:07;;;;;;;14.07;8.43;;;5.80;99.90;;;;;;5024291;28;20042;-73
2021/04/03 02:37:33;;;;;;;14.20;9.18;;;5.80;99.90;;;;;;5009251;28;20092;-73
2021/04/03 02:39:58;;;;;;;14.40;8.80;;;5.80;99.90;;;;;;5008834;28;20372;-73
2021/04/03 02:42:25;;;;;;;14.90;8.65;;;5.80;99.90;;;;;;5012786;28;20048;-73
2021/04/03 02:45:02;;;;;;;13.38;8.35;;;5.80;99.90;;;;;;5027859;28;20030;-73
2021/04/03 02:47:39;;;;;;;14.38;8.10;;;5.80;99.90;;;;;;5012962;28;20472;-73
2021/04/03 02:50:15;;;;;;;12.35;8.50;;;5.80;99.90;;;;;;5011783;28;20466;-73
2021/04/03 02:52:41;;;;;;;13.55;8.65;;;5.80;99.90;;;;;;5011452;28;20112;-73
2021/04/03 02:55:08;;;;;;;13.27;8.10;;;5.70;99.90;;;;;;5012452;28;20577;-73
2021/04/03 02:57:36;;;;;;;16.48;8.52;;;5.70;99.90;;;;;;5012569;28;20110;-73
2021/04/03 03:00:06;;;;;;;14.75;9.10;;;5.70;99.90;;;;;;5012189;28;20032;-73
2021/04/03 03:02:33;;;;;;;12.85;8.75;;;5.70;99.90;;;;;;5012342;28;20022;-73
2021/04/03 03:05:00;;;;;;;12.48;8.52;;;5.60;99.90;;;;;;5010868;28;20121;-73
2021/04/03 03:07:26;;;;;;;16.98;9.38;;;5.60;99.90;;;;;;5010922;28;20026;-73
2021/04/03 03:09:54;;;;;;;13.90;8.77;;;5.60;99.90;;;;;;5011005;28;20022;-73
2021/04/03 03:12:23;;;;;;;13.25;8.93;;;5.60;99.90;;;;;;5010957;28;20407;-73
2021/04/03 03:14:50;;;;;;;16.27;8.55;;;5.50;99.90;;;;;;5011965;28;20084;-73
2021/04/03 03:17:17;;;;;;;13.20;8.00;;;5.50;99.90;;;;;;5011913;28;20380;-73
2021/04/03 03:19:43;;;;;;;13.52;8.75;;;5.50;99.90;;;;;;5012061;28;20052;-73
2021/04/03 03:22:10;;;;;;;14.90;9.60;;;5.50;99.90;;;;;;5012048;28;20069;-73
2021/04/03 03:24:36;;;;;;;15.90;10.18;;;5.50;99.90;;;;;;5010571;28;20029;-73
2021/04/03 03:27:04;;;;;;;16.98;8.65;;;5.40;99.90;;;;;;5010688;28;20026;-73
2021/04/03 03:29:32;;;;;;;17.70;10.45;;;5.40;99.90;;;;;;5010578;28;20026;-73
2021/04/03 03:31:58;;;;;;;13.95;9.45;;;5.40;99.90;;;;;;5010620;28;20053;-73
2021/04/03 03:34:24;;;;;;;14.95;9.93;;;5.40;99.90;;;;;;5011906;28;20084;-73
2021/04/03 03:36:49;;;;;;;16.05;8.70;;;5.40;99.90;;;;;;5010473;28;20403;-73
2021/04/03 03:39:16;;;;;;;19.98;10.20;;;5.40;99.90;;;;;;5011757;28;20407;-73
2021/04/03 03:41:43;;;;;;;12.25;8.75;;;5.40;99.90;;;;;;5011699;28;20475;-73
2021/04/03 03:44:09;;;;;;;16.30;9.10;;;5.40;99.90;;;;;;5010245;28;20034;-73
2021/04/03 03:46:35;;;;;;;17.17;10.10;;;5.40;99.90;;;;;;5011598;28;20050;-73
2021/04/03 03:49:01;;;;;;;15.50;10.93;;;5.40;99.90;;;;;;5010240;28;20076;-73
2021/04/03 03:51:27;;;;;;;14.80;9.98;;;5.40;99.90;;;;;;5010619;28;20070;-72
2021/04/03 03:53:53;;;;;;;16.50;10.43;;;5.40;99.90;;;;;;5010078;28;20035;-73
2021/04/03 03:56:18;;;;;;;15.65;10.57;;;5.40;99.90;;;;;;5010192;28;20030;-73
2021/04/03 03:58:45;;;;;;;18.98;10.43;;;5.40;99.90;;;;;;5011826;28;20037;-73
2021/04/03 04:01:10;;;;;;;16.75;8.80;;;5.40;99.90;;;;;;5011233;28;20030;-73
2021/04/03 04:03:36;;;;;;;17.05;9.82;;;5.40;99.90;;;;;;5011514;28;20391;-73
2021/04/03 04:06:03;;;;;;;15.00;9.80;;;5.30;99.90;;;;;;5011272;28;20089;-73
2021/04/03 04:08:28;;;;;;;17.75;9.90;;;5.30;99.90;;;;;;5011458;28;20479;-73
2021/04/03 04:10:54;;;;;;;16.55;9.52;;;5.30;99.90;;;;;;5011497;28;20026;-73
2021/04/03 04:13:19;;;;;;;19.13;10.25;;;5.30;99.90;;;;;;5011200;28;20026;-73
2021/04/03 04:15:45;;;;;;;20.13;9.23;;;5.30;99.90;;;;;;5011181;28;20472;-73
2021/04/03 04:18:11;;;;;;;22.08;11.45;;;5.30;99.90;;;;;;5011294;28;20503;-72
2021/04/03 04:20:36;;;;;;;14.43;8.10;;;5.20;99.90;;;;;;5011311;28;20041;-73
2021/04/03 04:23:02;;;;;;;17.52;9.32;;;5.20;99.90;;;;;;5009792;28;20037;-73
2021/04/03 04:25:28;;;;;;;20.77;10.00;;;5.20;99.90;;;;;;5026002;28;20084;-73
2021/04/03 04:27:54;;;;;;;16.80;8.38;;;5.20;99.90;;;;;;5010882;28;20022;-73
2021/04/03 04:30:20;;;;;;;18.52;8.40;;;5.20;99.90;;;;;;5010982;28;20348;-73
2021/04/03 04:32:46;;;;;;;16.27;9.05;;;5.20;99.90;;;;;;5010802;28;20040;-73
2021/04/03 04:35:12;;;;;;;19.55;9.18;;;5.20;99.90;;;;;;5009567;28;20036;-73
2021/04/03 04:37:39;;;;;;;13.07;8.07;;;5.20;99.90;;;;;;5010702;28;20034;-73
2021/04/03 04:40:07;;;;;;;16.25;8.20;;;5.20;99.90;;;;;;5010713;28;20484;-73
2021/04/03 04:42:33;;;;;;;18.60;9.27;;;5.20;99.90;;;;;;5009401;28;20120;-73
2021/04/03 04:44:59;;;;;;;14.20;7.75;;;5.20;99.90;;;;;;5009302;28;20165;-73
2021/04/03 04:47:25;;;;;;;13.48;7.63;;;5.10;99.90;;;;;;5009328;28;20030;-73
2021/04/03 04:49:51;;;;;;;15.88;8.63;;;5.10;99.90;;;;;;5010600;28;20022;-73
2021/04/03 04:52:17;;;;;;;15.07;7.05;;;5.10;99.90;;;;;;5026263;28;20027;-73
2021/04/03 04:54:43;;;;;;;12.55;6.40;;;5.10;99.90;;;;;;5010371;28;20509;-73
2021/04/03 04:57:09;;;;;;;11.98;6.32;;;5.10;99.90;;;;;;5011831;28;20037;-73
2021/04/03 04:59:35;;;;;;;11.05;5.57;;;5.10;99.90;;;;;;5009734;28;20030;-73
2021/04/03 05:02:00;;;;;;;13.02;6.32;;;5.10;99.90;;;;;;5009160;28;20033;-72
2021/04/03 05:04:26;;;;;;;8.77;4.97;;;5.10;99.90;;;;;;5010657;28;20129;-73
2021/04/03 05:06:52;;;;;;;11.15;5.85;;;5.10;99.90;;;;;;5010580;28;20033;-72
2021/04/03 05:09:17;;;;;;;13.13;5.75;;;5.10;99.90;;;;;;5009018;28;20051;-73
2021/04/03 05:11:43;;;;;;;11.73;5.07;;;5.00;99.90;;;;;;5008962;28;20117;-73
2021/04/03 05:14:08;;;;;;;10.52;4.68;;;5.00;99.90;;;;;;5010192;28;20044;-74
2021/04/03 05:16:34;;;;;;;14.75;5.05;;;5.00;99.90;;;;;;5010151;28;20586;-73
2021/04/03 05:19:01;;;;;;;10.20;4.70;;;5.00;99.90;;;;;;5025274;28;20029;-73
2021/04/03 05:21:26;;;;;;;9.68;4.43;;;5.00;99.90;;;;;;5008928;28;20135;-72
2021/04/03 05:23:52;;;;;;;9.75;4.15;;;5.00;99.90;;;;;;5038911;23;20053;-73
2021/04/03 05:26:18;;;;;;;9.10;4.55;;;5.00;99.90;;;;;;5089447;28;20439;-74
2021/04/03 05:28:44;;;;;;;7.55;4.32;;;5.00;99.90;;;;;;5089469;28;20431;-73
2021/04/03 05:31:11;;;;;;;7.72;4.38;;;5.00;99.90;;;;;;5089570;28;20050;-73
2021/04/03 05:33:36;;;;;;;9.07;4.03;;;5.00;99.90;;;;;;5089596;28;20032;-73
2021/04/03 05:36:03;;;;;;;7.65;4.22;;;5.00;99.90;;;;;;5089324;28;20031;-73
2021/04/03 05:38:28;;;;;;;10.30;4.50;;;5.00;99.90;;;;;;5089127;28;20058;-73
2021/04/03 05:40:54;;;;;;;9.35;4.53;;;5.10;99.90;;;;;;5089437;28;20020;-73
2021/04/03 05:43:20;;;;;;;9.27;3.95;;;5.10;99.90;;;;;;5088897;28;20038;-73
2021/04/03 05:45:51;;;;;;;7.28;4.00;;;5.10;99.90;;;;;;5088866;28;20111;-73
2021/04/03 05:48:19;;;;;;;8.40;4.80;;;5.10;99.90;;;;;;5089310;28;20017;-73
2021/04/03 05:50:45;;;;;;;9.70;3.72;;;5.20;99.90;;;;;;5089009;28;20020;-73
2021/04/03 05:53:11;;;;;;;9.27;4.38;;;5.30;99.90;;;;;;5089107;28;20024;-73
2021/04/03 05:55:36;;;;;;;8.27;4.20;;;5.30;99.90;;;;;;5088906;28;20028;-73
2021/04/03 05:58:02;;;;;;;9.65;4.43;;;5.40;99.90;;;;;;5088931;28;20028;-73
2021/04/03 06:00:28;;;;;;;9.95;4.20;;;5.40;99.90;;;;;;5089284;28;20024;-73
2021/04/03 06:02:53;;;;;;;7.95;4.50;;;5.40;99.90;;;;;;5089389;28;20020;-73
2021/04/03 06:05:20;;;;;;;5.72;3.78;;;5.50;99.90;;;;;;5089623;28;20039;-73
2021/04/03 06:07:46;;;;;;;10.60;4.50;;;5.60;99.90;;;;;;5091066;28;20472;-74
2021/04/03 06:10:13;;;;;;;9.50;3.38;;;5.60;99.90;;;;;;5089889;28;20035;-73
2021/04/03 06:12:41;;;;;;;9.38;4.40;;;5.70;99.90;;;;;;5090448;28;20070;-73
2021/04/03 06:15:12;;;;;;;8.43;4.15;;;5.70;99.90;;;;;;5090919;28;20409;-74
2021/04/03 06:17:38;;;;;;;7.88;3.63;;;5.80;99.90;;;;;;5094613;28;20028;-73
2021/04/03 06:20:04;;;;;;;9.57;4.95;;;5.90;99.90;;;;;;5093293;28;20025;-73
2021/04/03 06:22:47;;;;;;;10.77;4.57;;;6.00;99.90;;;;;;5093345;28;20031;-73
2021/04/03 06:25:13;;;;;;;;;;;6.20;99.90;;;;;;5093814;28;20031;-73
2021/04/03 06:27:39;;;;;;;8.68;4.38;;;6.50;99.90;;;;;;5093911;28;20363;-73
2021/04/03 06:30:16;;;;;;;8.68;4.20;;;6.60;99.90;;;;;;5094052;28;20020;-74
2021/04/03 06:32:45;;;;;;;9.40;4.22;;;6.60;99.90;;;;;;5093505;28;20024;-73
2021/04/03 06:35:11;;;;;;;8.82;4.05;;;6.70;99.90;;;;;;5094381;28;20024;-73
2021/04/03 06:37:37;;;;;;;9.07;4.30;;;6.80;99.90;;;;;;5093266;28;20031;-73
2021/04/03 06:40:08;;;;;;;6.10;4.18;;;6.90;99.90;;;;;;5093372;28;20046;-74
2021/04/03 06:42:44;;;;;;;12.23;4.55;;;7.00;99.90;;;;;;5093519;28;20024;-73
2021/04/03 06:45:20;;;;;;;7.90;4.63;;;7.30;99.90;;;;;;5093962;28;20046;-73
2021/04/03 06:47:47;;;;;;;7.60;3.88;;;7.80;99.90;;;;;;5093073;28;20026;-73
2021/04/03 06:50:18;;;;;;;7.68;3.92;;;8.00;99.90;;;;;;5093396;28;20022;-73
2021/04/03 06:52:44;;;;;;;10.27;4.15;;;8.10;99.90;;;;;;5093455;28;20027;-73
2021/04/03 06:55:15;;;;;;;10.40;4.47;;;8.00;99.90;;;;;;5093573;28;20181;-74
2021/04/03 06:57:42;;;;;;;7.90;3.75;;;7.70;99.90;;;;;;5094054;28;20024;-72
2021/04/03 07:00:10;;;;;;;8.57;3.88;;;7.50;99.90;;;;;;5092490;28;20119;-72
2021/04/03 07:02:59;;;;;;;6.90;3.60;;;7.20;99.90;;;;;;5093911;28;20028;-72
2021/04/03 07:05:29;;;;;;;9.30;4.30;;;7.20;99.90;;;;;;5093647;28;20111;-72
2021/04/03 07:07:55;;;;;;;5.50;3.58;;;7.10;99.90;;;;;;5093415;28;20069;-72
2021/04/03 07:10:21;;;;;;;12.70;4.22;;;7.20;99.90;;;;;;5093012;28;20097;-71
2021/04/03 07:12:48;;;;;;;7.10;3.45;;;7.20;99.90;;;;;;5093196;28;20477;-72
2021/04/03 07:15:14;;;;;;;5.82;3.92;;;7.30;99.90;;;;;;5092820;28;20024;-72
2021/04/03 07:17:42;;;;;;;8.43;3.67;;;7.50;99.90;;;;;;5093084;28;20172;-72
2021/04/03 07:20:13;;;;;;;5.32;3.85;;;7.80;99.90;;;;;;5092234;28;20505;-72
2021/04/03 07:22:43;;;;;;;7.55;3.80;;;8.20;99.90;;;;;;5091750;28;20107;-73
2021/04/03 07:25:10;;;;;;;6.25;3.10;;;8.70;99.90;;;;;;5091664;28;20036;-71
2021/04/03 07:27:38;;;;;;;5.82;3.17;;;9.00;99.90;;;;;;5090621;28;20030;-72
2021/04/03 07:30:04;;;;;;;9.15;3.33;;;9.10;99.20;;;;;;5095365;28;20097;-73
2021/04/03 07:32:37;;;;;;;7.28;3.15;;;9.20;98.50;;;;;;5095620;28;20389;-74
2021/04/03 07:35:20;;;;;;;7.00;2.90;;;9.30;98.50;;;;;;5092884;28;20032;-73
2021/04/03 07:37:47;;;;;;;;;;;9.30;96.10;;;;;;5092070;28;20046;-73
2021/04/03 07:40:15;;;;;;;5.43;2.85;;;9.50;94.60;;;;;;5092075;28;19910;-73
2021/04/03 07:42:41;;;;;;;5.22;2.80;;;9.80;93.10;;;;;;5092641;28;20074;-73
2021/04/03 07:45:29;;;;;;;9.07;3.00;;;10.00;91.80;;;;;;5092255;28;20489;-73
2021/04/03 07:47:55;;;;;;;8.13;3.50;;;10.50;90.10;;;;;;5093189;28;20026;-73
2021/04/03 07:50:39;;;;;;;5.63;2.75;;;10.40;87.60;;;;;;5092312;28;20455;-73
2021/04/03 07:53:09;;;;;;;5.68;2.88;;;10.50;86.20;;;;;;5094134;28;20027;-73
2021/04/03 07:55:36;;;;;;;7.10;3.03;;;10.40;87.40;;;;;;5097087;28;20024;-73
2021/04/03 07:58:32;;;;;;;7.32;3.15;;;10.60;84.80;;;;;;5096493;28;20084;-73
2021/04/03 08:01:00;;;;;;;6.18;2.97;;;10.70;83.10;;;;;;5088817;28;20055;-73
2021/04/03 08:03:27;;;;;;;6.38;3.03;;;10.80;82.10;;;;;;5094075;28;20421;-73
2021/04/03 08:06:05;;;;;;;10.85;3.70;;;11.70;80.00;;;;;;5104367;28;20024;-73
2021/04/03 08:08:33;;;;;;;8.00;2.55;;;13.30;69.70;;;;;;5094992;28;20020;-73
2021/04/03 08:11:18;;;;;;;6.65;3.05;;;15.20;59.70;;;;;;5090511;28;20027;-73
2021/04/03 08:13:49;;;;;;;4.32;2.60;;;17.10;51.60;;;;;;5090515;28;20020;-73
2021/04/03 08:16:16;;;;;;;5.25;2.88;;;16.60;49.30;;;;;;5090300;28;20023;-73
2021/04/03 08:18:47;;;;;;;5.50;3.25;;;15.50;52.70;;;;;;5090216;28;20038;-73
2021/04/03 08:21:14;;;;;;;6.55;2.72;;;15.00;53.70;;;;;;5090694;28;20020;-73
2021/04/03 08:23:43;;;;;;;5.97;2.72;;;14.60;54.60;;;;;;5089608;28;20027;-73
2021/04/03 08:26:09;;;;;;;3.63;2.47;;;14.10;55.00;;;;;;5089730;28;20035;-73
2021/04/03 08:28:35;;;;;;;5.70;2.45;;;13.30;57.30;;;;;;5089728;28;20016;-73
2021/04/03 08:31:15;;;;;;;4.78;2.50;;;12.90;58.20;;;;;;5089521;28;20485;-73
2021/04/03 08:33:41;;;;;;;5.35;2.67;;;12.60;59.30;;;;;;5089660;28;20024;-74
2021/04/03 08:36:21;;;;;;;5.18;2.47;;;12.20;59.70;;;;;;5089597;28;20047;-73
2021/04/03 08:38:47;;;;;;;10.95;3.33;;;12.00;60.80;;;;;;5089052;28;20048;-73
2021/04/03 08:41:24;;;;;;;4.60;2.40;;;11.80;61.80;;;;;;5089437;28;20035;-73
2021/04/03 08:43:51;;;;;;;3.85;2.30;;;11.60;62.50;;;;;;5089435;28;20024;-73
2021/04/03 08:46:18;;;;;;;4.70;2.60;;;11.50;63.60;;;;;;5089189;28;20024;-73
2021/04/03 08:48:58;;;;;;;6.75;2.60;;;11.40;63.50;;;;;;5089252;28;20047;-73
2021/04/03 08:51:27;;;;;;;3.75;2.60;;;11.60;65.50;;;;;;5089144;28;20537;-73
2021/04/03 08:53:55;;;;;;;6.53;2.90;;;12.30;63.80;;;;;;5089107;28;20050;-74
2021/04/03 08:56:26;;;;;;;5.35;2.70;;;13.00;61.90;;;;;;5089018;28;20028;-73
2021/04/03 08:58:53;;;;;;;5.63;2.65;;;13.80;59.20;;;;;;5089126;28;20085;-73
2021/04/03 09:01:24;;;;;;;3.78;2.45;;;14.20;56.70;;;;;;5088980;28;20024;-73
2021/04/03 09:03:53;;;;;;;6.57;2.90;;;16.00;54.10;;;;;;5088935;28;20116;-75
2021/04/03 09:06:50;;;;;;;4.05;2.40;;;18.80;47.60;;;;;;5088864;28;20107;-74
2021/04/03 09:09:15;;;;;;;5.28;2.90;;;21.40;41.30;;;;;;5088793;28;20485;-73
2021/04/03 09:12:07;;;;;;;4.40;2.33;;;21.10;38.80;;;;;;5089189;28;20028;-74
2021/04/03 09:14:35;;;;;;;5.35;3.13;;;21.20;39.60;;;;;;5088666;28;20024;-74
2021/04/03 09:17:04;;;;;;;4.35;2.88;;;21.10;39.10;;;;;;5089064;28;20059;-74
2021/04/03 09:19:32;;;;;;;6.90;2.67;;;20.10;41.00;;;;;;5088831;28;20028;-74
2021/04/03 09:21:59;;;;;;;9.23;2.70;;;19.30;41.20;;;;;;5088684;28;20035;-73
2021/04/03 09:24:52;;;;;;;18.77;5.22;;;18.80;42.30;;;;;;5088531;28;20520;-74
2021/04/03 09:27:19;;;;;;;;;;;18.60;43.10;;;;;;5088954;28;20028;-73
2021/04/03 09:29:47;;;;;;;6.95;3.22;;;17.80;44.30;;;;;;5088485;28;20003;-73
2021/04/03 09:32:14;;;;;;;5.25;3.03;;;17.30;45.70;;;;;;5088409;28;20059;-74
2021/04/03 09:34:41;;;;;;;13.73;4.22;;;16.80;46.80;;;;;;5088338;28;20073;-74
2021/04/03 09:37:14;;;;;;;5.53;2.60;;;16.20;47.00;;;;;;5088426;28;20028;-73
2021/04/03 09:39:51;;;;;;;3.63;2.35;;;15.80;49.00;;;;;;5089643;28;20490;-73
2021/04/03 09:42:22;;;;;;;3.72;2.40;;;18.30;44.40;;;;;;5088258;28;20473;-74
2021/04/03 09:44:49;;;;;;;5.80;3.20;;;22.60;37.40;;;;;;5088176;28;20024;-74
2021/04/03 09:47:16;;;;;;;4.38;2.75;;;24.80;33.20;;;;;;5088287;28;20024;-74
2021/04/03 09:49:43;;;;;;;5.13;2.95;;;23.30;34.10;;;;;;5087337;28;20396;-74
2021/04/03 09:52:09;;;;;;;3.97;2.67;;;21.20;38.00;;;;;;5088079;28;20016;-74
2021/04/03 09:54:36;;;;;;;6.07;3.50;;;19.30;40.80;;;;;;5088028;28;20020;-74
2021/04/03 09:57:03;;;;;;;4.70;3.20;;;17.50;44.30;;;;;;5088151;28;20032;-74
2021/04/03 09:59:30;;;;;;;6.07;3.03;;;16.60;46.80;;;;;;5088385;28;20046;-74
2021/04/03 10:02:00;;;;;;;5.10;2.97;;;16.10;46.80;;;;;;5088195;28;20077;-74
2021/04/03 10:04:26;;;;;;;8.25;3.42;;;15.60;47.10;;;;;;5088209;28;20025;-74
2021/04/03 10:06:53;;;;;;;7.70;3.47;;;15.00;46.90;;;;;;5088110;28;20101;-74
2021/04/03 10:09:19;;;;;;;6.43;3.10;;;14.60;49.80;;;;;;5088112;28;20024;-74
2021/04/03 10:11:45;;;;;;;6.10;3.17;;;14.30;50.40;;;;;;5088172;28;20027;-74
2021/04/03 10:14:12;;;;;;;10.95;3.25;;;14.00;51.30;;;;;;5087968;28;20055;-74
2021/04/03 10:16:37;;;;;;;5.75;3.17;;;14.00;51.10;;;;;;5088135;28;20020;-73
2021/04/03 10:19:03;;;;;;;5.50;2.60;;;14.10;51.50;;;;;;5088033;28;20024;-74
2021/04/03 10:21:29;;;;;;;4.38;2.13;;;14.20;50.90;;;;;;5088064;28;20066;-73
2021/04/03 10:23:55;;;;;;;5.05;2.53;;;14.60;50.10;;;;;;5087714;28;20059;-74
2021/04/03 10:26:21;;;;;;;7.13;2.65;;;15.20;48.70;;;;;;5088286;28;20027;-74
2021/04/03 10:28:47;;;;;;;4.13;2.88;;;15.90;47.20;;;;;;5088204;28;20028;-73
2021/04/03 10:31:13;;;;;;;5.22;2.95;;;16.70;46.20;;;;;;5088226;28;20482;-74
2021/04/03 10:33:39;;;;;;;7.55;3.55;;;17.20;46.20;;;;;;5088163;28;20020;-74
2021/04/03 10:36:06;;;;;;;8.05;3.80;;;17.80;44.90;;;;;;5088503;28;20055;-74
2021/04/03 10:38:32;;;;;;;4.78;2.80;;;19.60;42.30;;;;;;5088489;28;20115;-74
2021/04/03 10:40:58;;;;;;;5.97;4.15;;;22.20;37.30;;;;;;5089058;28;20028;-74
2021/04/03 10:43:24;;;;;;;7.32;2.90;;;23.10;34.40;;;;;;5088966;28;20058;-74
2021/04/03 10:45:50;;;;;;;5.25;3.15;;;23.10;35.00;;;;;;5088199;28;20039;-75
2021/04/03 10:48:15;;;;;;;5.03;3.13;;;24.90;34.40;;;;;;5087987;28;20046;-75
2021/04/03 10:50:41;;;;;;;6.57;3.13;;;27.60;30.30;;;;;;5088173;28;20489;-74
2021/04/03 10:53:07;;;;;;;5.32;2.83;;;29.00;27.90;;;;;;5087990;28;20032;-75
2021/04/03 10:55:34;;;;;;;5.18;2.80;;;27.50;27.90;;;;;;5087990;28;20037;-74
2021/04/03 10:57:59;;;;;;;5.15;3.03;;;25.00;30.10;;;;;;5087886;28;20025;-75
2021/04/03 11:00:25;;;;;;;4.20;2.65;;;22.70;33.40;;;;;;5087796;28;20024;-75
2021/04/03 11:02:51;;;;;;;4.82;2.58;;;20.40;35.70;;;;;;5092686;28;20448;-74
2021/04/03 11:05:17;;;;;;;6.50;3.40;;;18.80;38.60;;;;;;5092504;28;20070;-74
2021/04/03 11:07:43;;;;;;;7.28;3.22;;;17.80;41.40;;;;;;5091337;28;20054;-74
2021/04/03 11:10:09;;;;;;;5.03;2.90;;;16.80;43.80;;;;;;5091366;28;20470;-73
2021/04/03 11:12:35;;;;;;;5.03;3.00;;;16.20;45.00;;;;;;5092481;28;20026;-73
2021/04/03 11:15:01;;;;;;;3.92;2.40;;;15.70;45.60;;;;;;5091312;28;20397;-74
2021/04/03 11:17:26;;;;;;;3.90;2.70;;;14.60;47.40;;;;;;5091137;28;20512;-73
2021/04/03 11:19:52;;;;;;;4.40;3.25;;;14.20;47.50;;;;;;5091116;28;20056;-73
2021/04/03 11:22:18;;;;;;;5.50;2.88;;;14.10;48.70;;;;;;5091026;28;20565;-73
2021/04/03 11:24:43;;;;;;;4.93;3.55;;;13.90;48.80;;;;;;5108435;22;20123;-73
2021/04/03 11:27:09;;;;;;;7.28;2.47;;;14.10;50.20;;;;;;5070657;28;20437;-73
2021/04/03 11:29:34;;;;;;;5.40;2.95;;;14.60;48.20;;;;;;5072135;28;20078;-71
2021/04/03 11:32:00;;;;;;;6.15;3.40;;;15.00;46.90;;;;;;5070801;28;20082;-74
2021/04/03 11:34:26;;;;;;;5.97;3.25;;;15.30;47.80;;;;;;5070486;28;20028;-73
2021/04/03 11:36:52;;;;;;;9.45;3.20;;;15.00;48.40;;;;;;5070441;28;20031;-73
2021/04/03 11:39:17;;;;;;;7.03;3.50;;;14.70;49.70;;;;;;5071780;28;20100;-74
2021/04/03 11:41:43;;;;;;;6.65;2.97;;;14.70;50.70;;;;;;5071788;28;20111;-69
2021/04/03 11:44:09;;;;;;;6.38;3.55;;;15.00;49.80;;;;;;5070264;28;20025;-74
2021/04/03 11:46:34;;;;;;;5.25;2.90;;;15.40;49.40;;;;;;5070250;28;20401;-73
2021/04/03 11:49:00;;;;;;;5.47;3.33;;;15.70;49.10;;;;;;5070136;28;20066;-73
2021/04/03 11:51:26;;;;;;;5.13;2.90;;;15.80;46.70;;;;;;5070155;28;20397;-73
2021/04/03 11:53:51;;;;;;;5.50;3.38;;;15.20;47.90;;;;;;5071478;28;20474;-73
2021/04/03 11:56:17;;;;;;;6.25;3.30;;;14.90;49.40;;;;;;5070117;28;20107;-73
2021/04/03 11:58:42;;;;;;;7.57;3.70;;;14.50;50.10;;;;;;5070385;28;20482;-70
2021/04/03 12:01:09;;;;;;;6.90;3.40;;;14.20;51.90;;;;;;5070170;28;20020;-72
2021/04/03 12:03:35;;;;;;;5.13;2.92;;;14.10;51.50;;;;;;5070072;28;20020;-73
2021/04/03 12:06:00;;;;;;;6.82;3.38;;;14.30;51.40;;;;;;5071066;28;20036;-73
2021/04/03 12:08:26;;;;;;;6.47;3.47;;;14.60;50.60;;;;;;5070259;28;20021;-73
2021/04/03 12:10:51;;;;;;;5.05;3.05;;;14.80;50.30;;;;;;5069867;28;20485;-73
2021/04/03 12:13:17;;;;;;;6.15;3.60;;;14.70;49.50;;;;;;5069153;28;20035;-73
2021/04/03 12:15:43;;;;;;;6.00;3.25;;;15.40;49.70;;;;;;5069632;28;20025;-72
2021/04/03 12:18:09;;;;;;;5.75;3.25;;;16.50;46.00;;;;;;5069626;28;20115;-73
2021/04/03 12:20:35;;;;;;;5.15;2.85;;;17.50;46.00;;;;;;5069558;28;20028;-74
2021/04/03 12:23:01;;;;;;;5.43;3.25;;;18.60;41.70;;;;;;5069617;28;20028;-73
2021/04/03 12:25:27;;;;;;;4.85;3.03;;;19.00;39.90;;;;;;5069205;28;20032;-73
2021/04/03 12:27:52;;;;;;;4.57;2.70;;;18.40;38.20;;;;;;5069442;28;20027;-73
2021/04/03 12:30:18;;;;;;;4.55;2.88;;;18.30;39.00;;;;;;5069633;28;20393;-73
2021/04/03 12:32:44;;;;;;;5.15;2.97;;;18.20;39.30;;;;;;5070727;28;20508;-73
2021/04/03 12:35:10;;;;;;;6.97;3.10;;;18.00;40.70;;;;;;5071643;28;20064;-73
2021/04/03 12:37:36;;;;;;;5.43;3.30;;;18.20;40.40;;;;;;5072634;28;20095;-73
2021/04/03 12:40:06;;;;;;;6.10;3.20;;;19.00;39.00;;;;;;5070839;28;20048;-73
2021/04/03 12:42:33;;;;;;;4.90;2.75;;;20.00;37.40;;;;;;5070523;28;20040;-73
2021/04/03 12:44:59;;;;;;;4.78;2.70;;;20.80;37.10;;;;;;5070756;28;20044;-74
2021/04/03 12:47:25;;;;;;;5.05;3.22;;;22.60;34.30;;;;;;5072298;28;20024;-74
2021/04/03 12:49:51;;;;;;;4.43;3.33;;;24.50;31.80;;;;;;5073946;28;20021;-73
2021/04/03 12:52:16;;;;;;;5.28;2.72;;;25.80;29.50;;;;;;5073114;28;20028;-74
2021/04/03 12:54:42;;;;;;;5.00;2.47;;;27.30;28.90;;;;;;5069761;28;20033;-74